createdAt,value
2018-01-15T00:02:04.205Z,-1.00
2018-01-15T00:04:33.197Z,-1.00
2018-01-15T00:07:03.023Z,-1.00
2018-01-15T00:09:31.991Z,-1.00
2018-01-15T00:12:01.752Z,-0.80
2018-01-15T00:14:30.749Z,-0.90
2018-01-15T00:17:00.467Z,-0.70
2018-01-15T00:19:29.500Z,-0.80
2018-01-15T00:21:59.261Z,-0.80
2018-01-15T00:24:28.257Z,-0.80
2018-01-15T00:26:58.037Z,-0.80
2018-01-15T00:29:27.088Z,-0.80
2018-01-15T00:31:56.085Z,-0.80
2018-01-15T00:34:25.224Z,-0.80
2018-01-15T00:36:54.252Z,-0.80
2018-01-15T00:39:23.541Z,-0.80
2018-01-15T00:41:52.527Z,-0.80
2018-01-15T00:44:21.505Z,-0.80
2018-01-15T00:46:50.540Z,-0.80
2018-01-15T00:49:19.505Z,-0.90
2018-01-15T00:51:48.491Z,-0.80
2018-01-15T00:55:36.552Z,-0.80
2018-01-15T00:58:06.323Z,-0.80
2018-01-15T01:00:35.304Z,-0.90
2018-01-15T01:03:05.395Z,-0.90
2018-01-15T01:05:34.376Z,-0.90
2018-01-15T01:08:03.355Z,-1.00
2018-01-15T01:10:32.373Z,-1.00
2018-01-15T01:13:01.341Z,-0.90
2018-01-15T01:15:30.309Z,-1.00
2018-01-15T01:17:59.317Z,-0.90
2018-01-15T01:20:28.285Z,-1.00
2018-01-15T01:22:57.418Z,-1.00
2018-01-15T01:25:26.436Z,-1.00
2018-01-15T01:27:55.468Z,-1.10
2018-01-15T01:30:24.427Z,-1.10
2018-01-15T01:32:53.760Z,-1.00
2018-01-15T01:35:22.941Z,-1.10
2018-01-15T01:37:52.731Z,-1.10
2018-01-15T01:40:22.484Z,-1.20
2018-01-15T01:42:51.438Z,-1.20
2018-01-15T01:45:20.424Z,-1.20
2018-01-15T01:47:49.930Z,-1.20
2018-01-15T01:50:18.877Z,-1.10
2018-01-15T01:52:47.884Z,-1.10
2018-01-15T01:55:16.893Z,-1.10
2018-01-15T01:57:45.911Z,-1.00
2018-01-15T02:00:15.976Z,-0.90
2018-01-15T02:02:44.928Z,-1.00
2018-01-15T02:05:14.640Z,-1.00
2018-01-15T02:07:44.354Z,-0.90
2018-01-15T02:10:14.132Z,-0.80
2018-01-15T02:12:43.101Z,-0.90
2018-01-15T02:15:12.101Z,-0.90
2018-01-15T02:17:42.229Z,-0.90
2018-01-15T02:20:11.219Z,-0.90
2018-01-15T02:22:40.168Z,-0.80
2018-01-15T02:25:09.173Z,-0.80
2018-01-15T02:27:38.184Z,-0.80
2018-01-15T02:30:07.180Z,-0.90
2018-01-15T02:32:36.130Z,-0.80
2018-01-15T02:35:06.018Z,-0.80
2018-01-15T02:37:35.919Z,-0.90
2018-01-15T02:40:04.949Z,-0.80
2018-01-15T02:42:34.731Z,-0.90
2018-01-15T02:45:03.801Z,-0.90
2018-01-15T02:47:32.785Z,-0.90
2018-01-15T02:50:01.809Z,-0.90
2018-01-15T02:52:30.909Z,-0.90
2018-01-15T02:54:59.922Z,-0.90
2018-01-15T02:57:29.682Z,-0.80
2018-01-15T02:59:58.664Z,-0.90
2018-01-15T03:02:27.685Z,-0.80
2018-01-15T03:04:57.488Z,-0.80
2018-01-15T03:07:26.506Z,-0.80
2018-01-15T03:09:56.500Z,-0.80
2018-01-15T03:12:25.481Z,-0.90
2018-01-15T03:14:54.473Z,-0.80
2018-01-15T03:17:23.495Z,-0.80
2018-01-15T03:19:53.284Z,-0.70
2018-01-15T03:22:22.241Z,-0.80
2018-01-15T03:24:51.244Z,-0.80
2018-01-15T03:27:20.247Z,-0.80
2018-01-15T03:29:49.259Z,-0.80
2018-01-15T03:32:18.274Z,-0.80
2018-01-15T03:34:47.267Z,-0.80
2018-01-15T03:37:16.233Z,-0.80
2018-01-15T03:39:45.280Z,-0.90
2018-01-15T03:42:14.994Z,-0.90
2018-01-15T03:44:43.951Z,-0.90
2018-01-15T03:47:12.988Z,-0.80
2018-01-15T03:49:41.972Z,-0.80
2018-01-15T03:52:10.983Z,-0.80
2018-01-15T03:54:39.904Z,-0.80
2018-01-15T03:57:08.909Z,-0.80
2018-01-15T03:59:38.653Z,-0.90
2018-01-15T04:02:08.445Z,-0.80
2018-01-15T04:04:37.433Z,-0.90
2018-01-15T04:07:06.466Z,-0.80
2018-01-15T04:09:35.492Z,-0.80
2018-01-15T04:12:04.799Z,-0.90
2018-01-15T04:14:33.819Z,-0.90
2018-01-15T04:17:02.788Z,-0.80
2018-01-15T04:19:31.781Z,-0.90
2018-01-15T04:22:01.575Z,-0.90
2018-01-15T04:24:30.525Z,-0.90
2018-01-15T04:27:00.268Z,-0.80
2018-01-15T04:29:29.269Z,-0.90
2018-01-15T04:31:58.264Z,-0.80
2018-01-15T04:34:27.280Z,-0.70
2018-01-15T04:36:56.432Z,-0.70
2018-01-15T04:39:25.414Z,-0.80
2018-01-15T04:41:54.648Z,-0.70
2018-01-15T04:44:23.601Z,-0.70
2018-01-15T04:46:52.623Z,-0.80
2018-01-15T04:49:21.585Z,-0.80
2018-01-15T04:51:50.580Z,-0.80
2018-01-15T04:54:19.556Z,-0.70
2018-01-15T04:56:49.292Z,-0.70
2018-01-15T04:59:18.330Z,-0.80
2018-01-15T05:01:47.324Z,-0.70
2018-01-15T05:04:16.328Z,-0.70
2018-01-15T05:06:46.150Z,-0.70
2018-01-15T05:09:15.945Z,-0.70
2018-01-15T05:11:44.892Z,-0.70
2018-01-15T05:14:13.825Z,-0.70
2018-01-15T05:16:42.789Z,-0.60
2018-01-15T05:19:11.815Z,-0.50
2018-01-15T05:21:40.792Z,-0.50
2018-01-15T05:24:09.767Z,-0.50
2018-01-15T05:26:38.741Z,-0.50
2018-01-15T05:29:07.742Z,-0.50
2018-01-15T05:31:36.740Z,-0.50
2018-01-15T05:34:05.810Z,-0.50
2018-01-15T05:36:34.749Z,-0.50
2018-01-15T05:39:03.844Z,-0.50
2018-01-15T05:41:33.576Z,-0.50
2018-01-15T05:44:03.223Z,-0.60
2018-01-15T05:46:32.215Z,-0.50
2018-01-15T05:49:01.213Z,-0.40
2018-01-15T05:51:30.204Z,-0.40
2018-01-15T05:53:59.284Z,-0.40
2018-01-15T05:56:28.307Z,-0.30
2018-01-15T05:58:57.324Z,-0.40
2018-01-15T06:01:26.424Z,-0.30
2018-01-15T06:03:55.449Z,-0.30
2018-01-15T06:09:08.485Z,-0.30
2018-01-15T06:11:38.312Z,-0.30
2018-01-15T06:14:07.428Z,-0.30
2018-01-15T06:16:36.514Z,-0.30
2018-01-15T06:19:08.073Z,-0.30
2018-01-15T06:21:37.123Z,-0.30
2018-01-15T06:24:06.592Z,-0.30
2018-01-15T06:26:35.560Z,-0.30
2018-01-15T06:29:05.280Z,-0.40
2018-01-15T06:31:34.288Z,-0.40
2018-01-15T06:34:03.331Z,-0.40
2018-01-15T06:36:34.472Z,-0.30
2018-01-15T06:39:04.492Z,-0.30
2018-01-15T06:41:34.272Z,-0.40
2018-01-15T06:44:03.327Z,-0.40
2018-01-15T06:46:32.306Z,-0.30
2018-01-15T06:49:01.302Z,-0.20
2018-01-15T06:51:30.292Z,-0.20
2018-01-15T06:53:59.376Z,-0.10
2018-01-15T06:56:28.408Z,-0.10
2018-01-15T06:58:58.221Z,-0.20
2018-01-15T07:01:27.262Z,-0.20
2018-01-15T07:03:57.008Z,0.00
2018-01-15T07:06:25.984Z,-0.10
2018-01-15T07:08:54.988Z,0.00
2018-01-15T07:11:24.010Z,0.10
2018-01-15T07:13:53.049Z,0.10
2018-01-15T07:17:42.153Z,0.20
2018-01-15T07:20:11.202Z,0.10
2018-01-15T07:22:40.966Z,0.20
2018-01-15T07:25:10.724Z,0.20
2018-01-15T07:27:39.833Z,0.20
2018-01-15T07:30:09.699Z,0.30
2018-01-15T07:32:38.769Z,0.20
2018-01-15T07:35:07.865Z,0.40
2018-01-15T07:37:37.011Z,0.40
2018-01-15T07:40:05.975Z,0.40
2018-01-15T07:42:34.968Z,0.40
2018-01-15T07:45:04.045Z,0.40
2018-01-15T07:47:33.003Z,0.30
2018-01-15T07:50:02.735Z,0.20
2018-01-15T07:52:31.682Z,0.10
2018-01-15T07:55:00.669Z,0.10
2018-01-15T07:57:29.644Z,0.10
2018-01-15T07:59:58.649Z,0.10
2018-01-15T08:02:27.752Z,0.20
2018-01-15T08:04:56.752Z,0.10
2018-01-15T08:07:25.733Z,0.20
2018-01-15T08:09:55.232Z,0.30
2018-01-15T08:12:24.288Z,0.30
2018-01-15T08:14:53.303Z,0.30
2018-01-15T08:17:22.276Z,0.30
2018-01-15T08:19:52.017Z,0.40
2018-01-15T08:22:21.036Z,0.30
2018-01-15T08:24:50.113Z,0.40
2018-01-15T08:27:19.203Z,0.60
2018-01-15T08:29:48.980Z,0.80
2018-01-15T08:32:48.550Z,0.70
2018-01-15T08:35:18.358Z,0.90
2018-01-15T08:37:48.222Z,0.90
2018-01-15T08:40:17.218Z,0.90
2018-01-15T08:42:47.041Z,1.10
2018-01-15T08:45:46.429Z,1.10
2018-01-15T08:48:15.465Z,1.20
2018-01-15T08:50:47.733Z,1.10
2018-01-15T08:53:16.725Z,1.10
2018-01-15T08:55:45.778Z,1.10
2018-01-15T08:58:15.382Z,1.10
2018-01-15T09:00:44.725Z,1.20
2018-01-15T09:03:13.804Z,1.20
2018-01-15T09:05:43.029Z,1.30
2018-01-15T09:08:12.792Z,1.40
2018-01-15T09:10:42.662Z,1.50
2018-01-15T09:13:12.433Z,1.60
2018-01-15T09:15:41.480Z,1.50
2018-01-15T09:18:11.305Z,1.60
2018-01-15T09:20:40.432Z,1.60
2018-01-15T09:23:09.528Z,1.60
2018-01-15T09:25:39.314Z,1.60
2018-01-15T09:28:11.556Z,1.60
2018-01-15T09:30:41.356Z,1.70
2018-01-15T09:33:10.509Z,1.70
2018-01-15T09:35:39.592Z,1.70
2018-01-15T09:38:08.717Z,1.70
2018-01-15T09:40:38.578Z,1.80
2018-01-15T09:43:07.774Z,1.70
2018-01-15T09:45:37.605Z,1.70
2018-01-15T09:48:07.415Z,1.80
2018-01-15T09:50:37.187Z,1.70
2018-01-15T09:53:06.302Z,1.70
2018-01-15T09:55:36.082Z,1.80
2018-01-15T09:58:05.837Z,1.80
2018-01-15T10:00:35.640Z,1.80
2018-01-15T10:03:05.421Z,1.80
2018-01-15T10:05:34.417Z,1.80
2018-01-15T10:08:03.447Z,1.90
2018-01-15T10:10:33.332Z,1.90
2018-01-15T10:13:02.305Z,1.90
2018-01-15T10:15:31.443Z,2.00
2018-01-15T10:18:02.770Z,2.00
2018-01-15T10:20:31.846Z,2.00
2018-01-15T10:23:00.998Z,2.00
2018-01-15T10:25:30.106Z,2.10
2018-01-15T10:27:59.209Z,2.10
2018-01-15T10:30:28.303Z,2.10
2018-01-15T10:32:57.350Z,2.10
2018-01-15T10:35:27.119Z,2.10
2018-01-15T10:37:56.136Z,2.10
2018-01-15T10:40:25.245Z,2.10
2018-01-15T10:42:55.005Z,2.20
2018-01-15T10:45:24.863Z,2.20
2018-01-15T10:47:54.763Z,2.20
2018-01-15T10:50:23.761Z,2.20
2018-01-15T10:52:52.809Z,2.20
2018-01-15T10:55:21.928Z,2.30
2018-01-15T10:57:51.079Z,2.30
2018-01-15T11:00:25.122Z,2.30
2018-01-15T11:02:54.162Z,2.30
2018-01-15T11:05:23.215Z,2.30
2018-01-15T11:07:53.146Z,2.30
2018-01-15T11:10:22.228Z,2.30
2018-01-15T11:12:51.998Z,2.30
2018-01-15T11:15:21.947Z,2.20
2018-01-15T11:17:51.045Z,2.20
2018-01-15T11:20:20.072Z,2.20
2018-01-15T11:22:49.196Z,2.20
2018-01-15T11:25:18.278Z,2.20
2018-01-15T11:27:47.423Z,2.20
2018-01-15T11:30:16.475Z,2.30
2018-01-15T11:32:46.213Z,2.20
2018-01-15T11:35:16.024Z,2.20
2018-01-15T11:37:46.112Z,2.20
2018-01-15T11:40:15.885Z,2.30
2018-01-15T11:42:44.895Z,2.20
2018-01-15T11:45:14.761Z,2.20
2018-01-15T11:47:43.805Z,2.20
2018-01-15T11:50:19.323Z,2.30
2018-01-15T11:52:48.337Z,2.30
2018-01-15T11:55:17.414Z,2.20
2018-01-15T11:57:46.478Z,2.20
2018-01-15T12:00:15.564Z,2.20
2018-01-15T12:02:45.375Z,2.20
2018-01-15T12:05:15.249Z,2.20
2018-01-15T12:07:45.207Z,2.30
2018-01-15T12:10:14.714Z,2.20
2018-01-15T12:12:43.825Z,2.30
2018-01-15T12:15:12.860Z,2.30
2018-01-15T12:17:42.065Z,2.40
2018-01-15T12:20:11.215Z,2.40
2018-01-15T12:22:40.331Z,2.40
2018-01-15T12:25:09.408Z,2.40
2018-01-15T12:27:38.516Z,2.30
2018-01-15T12:30:08.309Z,2.30
2018-01-15T12:32:38.142Z,2.40
2018-01-15T12:36:26.500Z,2.30
2018-01-15T12:38:55.533Z,2.30
2018-01-15T12:41:25.343Z,2.40
2018-01-15T12:43:55.225Z,2.40
2018-01-15T12:46:24.304Z,2.30
2018-01-15T12:48:53.401Z,2.40
2018-01-15T12:51:22.516Z,2.40
2018-01-15T12:53:51.582Z,2.40
2018-01-15T12:56:26.443Z,2.40
2018-01-15T12:58:55.451Z,2.30
2018-01-15T13:01:24.556Z,2.40
2018-01-15T13:03:53.784Z,2.40
2018-01-15T13:06:23.916Z,2.40
2018-01-15T13:09:01.020Z,2.40
2018-01-15T13:11:30.071Z,2.40
2018-01-15T13:13:59.913Z,2.40
2018-01-15T13:16:28.997Z,2.40
2018-01-15T13:18:58.026Z,2.50
2018-01-15T13:21:27.055Z,2.60
2018-01-15T13:23:56.867Z,2.70
2018-01-15T13:26:28.342Z,2.70
2018-01-15T13:28:57.347Z,2.60
2018-01-15T13:31:26.385Z,2.80
2018-01-15T13:33:55.412Z,2.80
2018-01-15T13:36:24.501Z,2.80
2018-01-15T13:38:54.272Z,2.80
2018-01-15T13:41:23.352Z,2.80
2018-01-15T13:43:52.414Z,2.80
2018-01-15T13:46:22.269Z,2.90
2018-01-15T13:48:51.355Z,2.90
2018-01-15T13:51:20.458Z,2.90
2018-01-15T13:53:49.485Z,2.80
2018-01-15T13:56:24.808Z,2.80
2018-01-15T13:58:53.850Z,2.70
2018-01-15T14:01:22.962Z,2.80
2018-01-15T14:03:52.034Z,2.90
2018-01-15T14:06:21.118Z,3.00
2018-01-15T14:08:50.924Z,3.00
2018-01-15T14:11:20.733Z,3.00
2018-01-15T14:13:50.465Z,3.00
2018-01-15T14:16:19.526Z,3.00
2018-01-15T14:18:49.650Z,3.00
2018-01-15T14:21:18.658Z,2.90
2018-01-15T14:23:48.409Z,3.10
2018-01-15T14:26:21.896Z,3.00
2018-01-15T14:28:51.674Z,3.10
2018-01-15T14:31:20.724Z,3.00
2018-01-15T14:33:49.738Z,3.00
2018-01-15T14:36:18.750Z,3.10
2018-01-15T14:38:48.490Z,3.00
2018-01-15T14:41:18.412Z,3.00
2018-01-15T14:43:47.501Z,2.90
2018-01-15T14:46:20.296Z,3.00
2018-01-15T14:48:50.124Z,2.90
2018-01-15T14:51:19.264Z,2.90
2018-01-15T14:53:48.973Z,2.90
2018-01-15T14:56:19.068Z,2.90
2018-01-15T14:58:48.176Z,2.90
2018-01-15T15:01:17.351Z,2.90
2018-01-15T15:03:48.007Z,2.90
2018-01-15T15:06:17.812Z,3.00
2018-01-15T15:08:46.846Z,2.90
2018-01-15T15:11:16.649Z,3.00
2018-01-15T15:13:46.539Z,3.00
2018-01-15T15:16:21.553Z,3.00
2018-01-15T15:18:50.548Z,2.90
2018-01-15T15:21:21.318Z,3.10
2018-01-15T15:23:51.413Z,3.10
2018-01-15T15:26:20.405Z,3.10
2018-01-15T15:28:52.247Z,3.10
2018-01-15T15:31:31.255Z,3.10
2018-01-15T15:34:12.233Z,3.10
2018-01-15T15:36:49.273Z,3.20
2018-01-15T15:39:22.163Z,3.20
2018-01-15T15:41:53.778Z,3.30
2018-01-15T15:44:23.260Z,3.30
2018-01-15T15:48:12.357Z,3.30
2018-01-15T15:50:41.440Z,3.40
2018-01-15T15:53:10.474Z,3.40
2018-01-15T15:55:40.500Z,3.50
2018-01-15T15:58:09.600Z,3.50
2018-01-15T16:00:39.461Z,3.50
2018-01-15T16:03:08.704Z,3.50
2018-01-15T16:05:38.520Z,3.60
2018-01-15T16:08:07.627Z,3.60
2018-01-15T16:10:38.980Z,3.60
2018-01-15T16:13:14.736Z,3.60
2018-01-15T16:15:45.977Z,3.70
2018-01-15T16:18:14.967Z,3.60
2018-01-15T16:20:44.227Z,3.70
2018-01-15T16:23:14.186Z,3.70
2018-01-15T16:25:43.282Z,3.70
2018-01-15T16:28:14.177Z,3.70
2018-01-15T16:30:43.371Z,3.70
2018-01-15T16:33:12.397Z,3.70
2018-01-15T16:35:42.308Z,3.60
2018-01-15T16:38:11.618Z,3.60
2018-01-15T16:40:40.672Z,3.60
2018-01-15T16:43:09.820Z,3.60
2018-01-15T16:45:38.868Z,3.70
2018-01-15T16:48:08.848Z,3.70
2018-01-15T16:50:38.644Z,3.70
2018-01-15T16:53:07.746Z,3.70
2018-01-15T16:55:36.858Z,3.70
2018-01-15T17:00:54.071Z,3.70
2018-01-15T17:03:23.172Z,3.80
2018-01-15T17:05:52.174Z,3.80
2018-01-15T17:08:22.063Z,3.90
2018-01-15T17:10:51.164Z,3.80
2018-01-15T17:13:20.203Z,3.90
2018-01-15T17:15:49.248Z,3.90
2018-01-15T17:18:18.425Z,3.90
2018-01-15T17:20:47.534Z,3.90
2018-01-15T17:23:16.652Z,3.90
2018-01-15T17:25:46.506Z,3.90
2018-01-15T17:28:20.560Z,3.90
2018-01-15T17:30:50.370Z,4.00
2018-01-15T17:33:19.456Z,4.00
2018-01-15T17:35:48.536Z,4.00
2018-01-15T17:38:18.578Z,4.00
2018-01-15T17:40:47.632Z,4.00
2018-01-15T17:43:17.417Z,4.10
2018-01-15T17:45:47.517Z,4.00
2018-01-15T17:48:16.628Z,4.00
2018-01-15T17:50:46.039Z,4.10
2018-01-15T17:53:15.132Z,4.10
2018-01-15T17:55:45.588Z,4.00
2018-01-15T17:58:15.457Z,3.90
2018-01-15T18:00:44.444Z,3.90
2018-01-15T18:03:14.519Z,4.10
2018-01-15T18:05:43.564Z,4.00
2018-01-15T18:08:12.615Z,4.10
2018-01-15T18:10:41.741Z,4.00
2018-01-15T18:13:10.780Z,4.00
2018-01-15T18:15:40.589Z,4.00
2018-01-15T18:18:09.731Z,3.90
2018-01-15T18:20:38.752Z,3.90
2018-01-15T18:23:07.849Z,3.90
2018-01-15T18:25:37.755Z,3.90
2018-01-15T18:28:09.229Z,3.90
2018-01-15T18:30:39.081Z,3.90
2018-01-15T18:33:08.965Z,3.90
2018-01-15T18:35:38.818Z,3.90
2018-01-15T18:38:07.822Z,3.90
2018-01-15T18:40:36.945Z,3.90
2018-01-15T18:43:06.089Z,3.90
2018-01-15T18:45:35.145Z,3.90
2018-01-15T18:48:05.555Z,3.90
2018-01-15T18:50:35.478Z,4.00
2018-01-15T18:53:04.525Z,3.90
2018-01-15T18:55:33.548Z,4.00
2018-01-15T18:58:05.596Z,4.00
2018-01-15T19:00:35.540Z,3.90
2018-01-15T19:03:04.633Z,4.00
2018-01-15T19:05:34.493Z,4.00
2018-01-15T19:08:04.353Z,4.00
2018-01-15T19:10:33.388Z,3.90
2018-01-15T19:13:03.359Z,4.10
2018-01-15T19:15:33.200Z,4.10
2018-01-15T19:18:02.267Z,4.10
2018-01-15T19:20:31.277Z,4.00
2018-01-15T19:23:00.384Z,4.10
2018-01-15T19:25:30.226Z,4.00
2018-01-15T19:28:00.173Z,4.00
2018-01-15T19:30:29.344Z,4.00
2018-01-15T19:32:59.263Z,4.00
2018-01-15T19:35:28.447Z,4.00
2018-01-15T19:37:58.368Z,4.10
2018-01-15T19:40:28.363Z,4.10
2018-01-15T19:42:58.378Z,4.10
2018-01-15T19:47:33.742Z,4.10
2018-01-15T19:52:15.928Z,4.10
2018-01-15T19:56:52.411Z,4.00
2018-01-15T20:01:34.429Z,4.00
2018-01-15T20:06:11.163Z,4.00
2018-01-15T20:10:49.761Z,4.10
2018-01-15T20:13:18.929Z,4.10
2018-01-15T20:15:48.355Z,4.00
2018-01-15T20:18:18.647Z,4.00
2018-01-15T20:20:47.766Z,3.90
2018-01-15T20:23:17.731Z,3.90
2018-01-15T20:25:46.970Z,3.90
2018-01-15T20:28:16.253Z,3.90
2018-01-15T20:30:45.640Z,3.80
2018-01-15T20:33:15.664Z,3.80
2018-01-15T20:35:45.223Z,3.70
2018-01-15T20:38:14.917Z,3.70
2018-01-15T20:40:44.649Z,3.70
2018-01-15T20:43:14.716Z,3.60
2018-01-15T20:45:43.927Z,3.60
2018-01-15T20:48:14.529Z,3.70
2018-01-15T20:50:43.607Z,3.70
2018-01-15T20:53:12.761Z,3.70
2018-01-15T20:55:47.319Z,3.70
2018-01-15T20:58:16.569Z,3.70
2018-01-15T21:00:45.669Z,3.70
2018-01-15T21:03:14.808Z,3.70
2018-01-15T21:05:44.826Z,3.70
2018-01-15T21:08:14.812Z,3.70
2018-01-15T21:10:44.028Z,3.60
2018-01-15T21:13:13.178Z,3.60
2018-01-15T21:15:42.628Z,3.60
2018-01-15T21:18:12.540Z,3.60
2018-01-15T21:20:42.759Z,3.60
2018-01-15T21:23:12.683Z,3.60
2018-01-15T21:25:42.655Z,3.60
2018-01-15T21:28:12.541Z,3.60
2018-01-15T21:30:41.718Z,3.70
2018-01-15T21:33:11.727Z,3.70
2018-01-15T21:35:41.155Z,3.60
2018-01-15T21:38:10.199Z,3.70
2018-01-15T21:40:39.202Z,3.70
2018-01-15T21:43:08.310Z,3.60
2018-01-15T21:45:38.135Z,3.60
2018-01-15T21:48:07.201Z,3.60
2018-01-15T21:50:36.352Z,3.70
2018-01-15T21:53:05.557Z,3.70
2018-01-15T21:55:34.620Z,3.70
2018-01-15T21:58:04.478Z,3.70
2018-01-15T22:00:33.518Z,3.60
2018-01-15T22:03:03.349Z,3.70
2018-01-15T22:05:32.351Z,3.60
2018-01-15T22:08:01.487Z,3.60
2018-01-15T22:10:30.502Z,3.60
2018-01-15T22:12:59.474Z,3.60
2018-01-15T22:15:28.486Z,3.70
2018-01-15T22:17:58.285Z,3.60
2018-01-15T22:20:27.349Z,3.50
2018-01-15T22:22:56.400Z,3.60
2018-01-15T22:25:56.609Z,3.60
2018-01-15T22:28:25.664Z,3.50
2018-01-15T22:30:54.681Z,3.60
2018-01-15T22:33:23.629Z,3.60
2018-01-15T22:35:52.625Z,3.50
2018-01-15T22:38:21.598Z,3.50
2018-01-15T22:42:09.909Z,3.50
2018-01-15T22:44:39.008Z,3.40
2018-01-15T22:47:08.034Z,3.40
2018-01-15T22:49:37.844Z,3.30
2018-01-15T22:52:07.599Z,3.30
2018-01-15T22:54:36.765Z,3.20
2018-01-15T22:57:06.577Z,3.30
2018-01-15T23:43:16.864Z,3.70
2018-01-15T23:45:45.835Z,3.60
2018-01-15T23:48:14.839Z,3.70
2018-01-15T23:50:43.856Z,3.60
2018-01-15T23:53:12.792Z,3.60
2018-01-15T23:55:41.843Z,3.60
2018-01-15T23:58:10.784Z,3.70
